sensor_id;sensor_type;location;lat;lon;timestamp;P1;durP1;ratioP1;P2;durP2;ratioP2
30378;SDS011;17168;49.164;9.060;2024-03-07T00:00:40;18.55;;;10.25;;
30378;SDS011;17168;49.164;9.060;2024-03-07T00:03:14;20.42;;;11.68;;
30378;SDS011;17168;49.164;9.060;2024-03-07T00:05:48;23.73;;;12.82;;
30378;SDS011;17168;49.164;9.060;2024-03-07T00:08:23;26.52;;;13.75;;
30378;SDS011;17168;49.164;9.060;2024-03-07T00:10:57;28.23;;;14.23;;
30378;SDS011;17168;49.164;9.060;2024-03-07T00:13:30;31.55;;;15.27;;
30378;SDS011;17168;49.164;9.060;2024-03-07T00:16:02;31.02;;;14.95;;
30378;SDS011;17168;49.164;9.060;2024-03-07T00:18:34;29.73;;;14.80;;
30378;SDS011;17168;49.164;9.060;2024-03-07T00:21:06;32.03;;;15.82;;
30378;SDS011;17168;49.164;9.060;2024-03-07T00:23:40;33.17;;;15.48;;
30378;SDS011;17168;49.164;9.060;2024-03-07T00:26:15;32.53;;;16.30;;
30378;SDS011;17168;49.164;9.060;2024-03-07T00:28:47;35.97;;;15.75;;
30378;SDS011;17168;49.164;9.060;2024-03-07T00:31:19;30.50;;;15.60;;
30378;SDS011;17168;49.164;9.060;2024-03-07T00:33:51;30.42;;;15.35;;
30378;SDS011;17168;49.164;9.060;2024-03-07T00:36:40;34.05;;;16.83;;
30378;SDS011;17168;49.164;9.060;2024-03-07T00:39:12;34.17;;;16.27;;
30378;SDS011;17168;49.164;9.060;2024-03-07T00:41:47;30.40;;;16.15;;
30378;SDS011;17168;49.164;9.060;2024-03-07T00:44:19;32.88;;;15.95;;
30378;SDS011;17168;49.164;9.060;2024-03-07T00:46:52;33.00;;;14.85;;
30378;SDS011;17168;49.164;9.060;2024-03-07T00:49:25;29.92;;;14.50;;
30378;SDS011;17168;49.164;9.060;2024-03-07T00:51:57;31.92;;;15.82;;
30378;SDS011;17168;49.164;9.060;2024-03-07T00:54:30;33.30;;;15.70;;
30378;SDS011;17168;49.164;9.060;2024-03-07T00:57:04;32.40;;;15.93;;
30378;SDS011;17168;49.164;9.060;2024-03-07T00:59:37;31.02;;;16.20;;
30378;SDS011;17168;49.164;9.060;2024-03-07T01:02:09;34.80;;;16.52;;
30378;SDS011;17168;49.164;9.060;2024-03-07T01:04:41;34.42;;;17.10;;
30378;SDS011;17168;49.164;9.060;2024-03-07T01:07:14;38.83;;;17.30;;
30378;SDS011;17168;49.164;9.060;2024-03-07T01:09:46;35.67;;;17.73;;
30378;SDS011;17168;49.164;9.060;2024-03-07T01:12:21;37.40;;;17.08;;
30378;SDS011;17168;49.164;9.060;2024-03-07T01:14:55;35.58;;;16.60;;
30378;SDS011;17168;49.164;9.060;2024-03-07T01:17:29;35.67;;;17.75;;
30378;SDS011;17168;49.164;9.060;2024-03-07T01:20:01;35.78;;;17.55;;
30378;SDS011;17168;49.164;9.060;2024-03-07T01:22:34;37.97;;;17.15;;
30378;SDS011;17168;49.164;9.060;2024-03-07T01:25:06;33.75;;;15.60;;
30378;SDS011;17168;49.164;9.060;2024-03-07T01:27:41;33.25;;;16.73;;
30378;SDS011;17168;49.164;9.060;2024-03-07T01:30:13;31.92;;;16.10;;
30378;SDS011;17168;49.164;9.060;2024-03-07T01:32:46;33.67;;;15.63;;
30378;SDS011;17168;49.164;9.060;2024-03-07T01:35:19;34.58;;;16.75;;
30378;SDS011;17168;49.164;9.060;2024-03-07T01:37:51;31.02;;;16.60;;
30378;SDS011;17168;49.164;9.060;2024-03-07T01:40:23;34.38;;;15.23;;
30378;SDS011;17168;49.164;9.060;2024-03-07T01:42:58;32.05;;;14.63;;
30378;SDS011;17168;49.164;9.060;2024-03-07T01:45:32;33.72;;;15.88;;
30378;SDS011;17168;49.164;9.060;2024-03-07T01:48:05;34.50;;;15.65;;
30378;SDS011;17168;49.164;9.060;2024-03-07T01:50:39;33.03;;;15.05;;
30378;SDS011;17168;49.164;9.060;2024-03-07T01:53:11;35.20;;;16.08;;
30378;SDS011;17168;49.164;9.060;2024-03-07T01:55:45;32.40;;;15.70;;
30378;SDS011;17168;49.164;9.060;2024-03-07T01:58:20;36.17;;;15.38;;
30378;SDS011;17168;49.164;9.060;2024-03-07T02:00:53;39.60;;;16.52;;
30378;SDS011;17168;49.164;9.060;2024-03-07T02:03:26;35.63;;;16.85;;
30378;SDS011;17168;49.164;9.060;2024-03-07T02:05:58;35.28;;;15.77;;
30378;SDS011;17168;49.164;9.060;2024-03-07T02:08:30;27.35;;;13.48;;
30378;SDS011;17168;49.164;9.060;2024-03-07T02:11:03;32.72;;;16.05;;
30378;SDS011;17168;49.164;9.060;2024-03-07T02:13:39;37.88;;;15.80;;
30378;SDS011;17168;49.164;9.060;2024-03-07T02:16:11;36.72;;;17.00;;
30378;SDS011;17168;49.164;9.060;2024-03-07T02:18:43;31.13;;;14.48;;
30378;SDS011;17168;49.164;9.060;2024-03-07T02:21:19;38.25;;;16.52;;
30378;SDS011;17168;49.164;9.060;2024-03-07T02:23:51;34.50;;;16.75;;
30378;SDS011;17168;49.164;9.060;2024-03-07T02:26:24;33.67;;;14.77;;
30378;SDS011;17168;49.164;9.060;2024-03-07T02:28:57;33.47;;;14.70;;
30378;SDS011;17168;49.164;9.060;2024-03-07T02:31:29;34.92;;;15.25;;
30378;SDS011;17168;49.164;9.060;2024-03-07T02:34:08;36.42;;;16.02;;
30378;SDS011;17168;49.164;9.060;2024-03-07T02:36:43;37.72;;;17.92;;
30378;SDS011;17168;49.164;9.060;2024-03-07T02:39:15;32.90;;;15.77;;
30378;SDS011;17168;49.164;9.060;2024-03-07T02:41:48;34.95;;;16.05;;
30378;SDS011;17168;49.164;9.060;2024-03-07T02:44:21;36.72;;;16.00;;
30378;SDS011;17168;49.164;9.060;2024-03-07T02:46:53;41.35;;;16.70;;
30378;SDS011;17168;49.164;9.060;2024-03-07T02:49:26;35.22;;;16.45;;
30378;SDS011;17168;49.164;9.060;2024-03-07T02:52:00;32.78;;;15.82;;
30378;SDS011;17168;49.164;9.060;2024-03-07T02:54:33;32.63;;;15.88;;
30378;SDS011;17168;49.164;9.060;2024-03-07T02:57:05;33.90;;;16.00;;
30378;SDS011;17168;49.164;9.060;2024-03-07T02:59:37;34.00;;;15.63;;
30378;SDS011;17168;49.164;9.060;2024-03-07T03:02:09;37.85;;;16.60;;
30378;SDS011;17168;49.164;9.060;2024-03-07T03:04:41;38.35;;;17.08;;
30378;SDS011;17168;49.164;9.060;2024-03-07T03:07:16;40.22;;;17.67;;
30378;SDS011;17168;49.164;9.060;2024-03-07T03:09:49;34.13;;;16.15;;
30378;SDS011;17168;49.164;9.060;2024-03-07T03:12:21;34.92;;;15.98;;
30378;SDS011;17168;49.164;9.060;2024-03-07T03:14:54;34.65;;;15.75;;
30378;SDS011;17168;49.164;9.060;2024-03-07T03:17:26;34.42;;;16.05;;
30378;SDS011;17168;49.164;9.060;2024-03-07T03:19:58;30.70;;;13.20;;
30378;SDS011;17168;49.164;9.060;2024-03-07T03:22:33;31.50;;;15.05;;
30378;SDS011;17168;49.164;9.060;2024-03-07T03:25:06;31.45;;;13.80;;
30378;SDS011;17168;49.164;9.060;2024-03-07T03:27:38;33.00;;;15.07;;
30378;SDS011;17168;49.164;9.060;2024-03-07T03:30:12;31.25;;;14.43;;
30378;SDS011;17168;49.164;9.060;2024-03-07T03:32:45;32.78;;;14.35;;
30378;SDS011;17168;49.164;9.060;2024-03-07T03:35:19;29.67;;;14.43;;
30378;SDS011;17168;49.164;9.060;2024-03-07T03:37:53;29.73;;;13.30;;
30378;SDS011;17168;49.164;9.060;2024-03-07T03:40:26;33.75;;;14.30;;
30378;SDS011;17168;49.164;9.060;2024-03-07T03:42:58;33.70;;;15.70;;
30378;SDS011;17168;49.164;9.060;2024-03-07T03:45:30;32.25;;;14.98;;
30378;SDS011;17168;49.164;9.060;2024-03-07T03:48:06;31.45;;;14.48;;
30378;SDS011;17168;49.164;9.060;2024-03-07T03:50:39;42.95;;;16.80;;
30378;SDS011;17168;49.164;9.060;2024-03-07T03:53:13;35.17;;;15.70;;
30378;SDS011;17168;49.164;9.060;2024-03-07T03:55:46;37.92;;;15.23;;
30378;SDS011;17168;49.164;9.060;2024-03-07T03:58:18;35.42;;;15.25;;
30378;SDS011;17168;49.164;9.060;2024-03-07T04:00:50;37.78;;;16.02;;
30378;SDS011;17168;49.164;9.060;2024-03-07T04:03:23;32.35;;;14.15;;
30378;SDS011;17168;49.164;9.060;2024-03-07T04:05:55;35.58;;;15.48;;
30378;SDS011;17168;49.164;9.060;2024-03-07T04:08:30;31.13;;;14.88;;
30378;SDS011;17168;49.164;9.060;2024-03-07T04:11:02;35.33;;;15.85;;
30378;SDS011;17168;49.164;9.060;2024-03-07T04:13:35;30.33;;;13.75;;
30378;SDS011;17168;49.164;9.060;2024-03-07T04:16:07;31.02;;;14.25;;
30378;SDS011;17168;49.164;9.060;2024-03-07T04:18:40;31.73;;;13.30;;
30378;SDS011;17168;49.164;9.060;2024-03-07T04:21:12;31.60;;;14.85;;
30378;SDS011;17168;49.164;9.060;2024-03-07T04:23:47;33.17;;;15.95;;
30378;SDS011;17168;49.164;9.060;2024-03-07T04:26:19;38.35;;;15.60;;
30378;SDS011;17168;49.164;9.060;2024-03-07T04:28:51;33.63;;;15.50;;
30378;SDS011;17168;49.164;9.060;2024-03-07T04:31:23;39.72;;;16.40;;
30378;SDS011;17168;49.164;9.060;2024-03-07T04:36:27;35.13;;;14.98;;
30378;SDS011;17168;49.164;9.060;2024-03-07T04:39:05;37.88;;;17.17;;
30378;SDS011;17168;49.164;9.060;2024-03-07T04:41:41;35.67;;;15.85;;
30378;SDS011;17168;49.164;9.060;2024-03-07T04:44:13;34.97;;;14.65;;
30378;SDS011;17168;49.164;9.060;2024-03-07T04:46:46;36.58;;;15.43;;
30378;SDS011;17168;49.164;9.060;2024-03-07T04:49:18;35.15;;;15.23;;
30378;SDS011;17168;49.164;9.060;2024-03-07T04:51:50;34.92;;;14.80;;
30378;SDS011;17168;49.164;9.060;2024-03-07T04:54:28;39.20;;;15.77;;
30378;SDS011;17168;49.164;9.060;2024-03-07T04:57:01;39.92;;;15.95;;
30378;SDS011;17168;49.164;9.060;2024-03-07T04:59:34;37.88;;;15.90;;
30378;SDS011;17168;49.164;9.060;2024-03-07T05:02:06;37.40;;;15.45;;
30378;SDS011;17168;49.164;9.060;2024-03-07T05:04:39;37.63;;;15.85;;
30378;SDS011;17168;49.164;9.060;2024-03-07T05:07:11;38.97;;;16.13;;
30378;SDS011;17168;49.164;9.060;2024-03-07T05:09:46;38.67;;;15.23;;
30378;SDS011;17168;49.164;9.060;2024-03-07T05:12:18;40.35;;;16.30;;
30378;SDS011;17168;49.164;9.060;2024-03-07T05:14:50;39.83;;;17.33;;
30378;SDS011;17168;49.164;9.060;2024-03-07T05:17:22;36.85;;;15.95;;
30378;SDS011;17168;49.164;9.060;2024-03-07T05:19:54;36.05;;;15.40;;
30378;SDS011;17168;49.164;9.060;2024-03-07T05:25:04;36.42;;;14.40;;
30378;SDS011;17168;49.164;9.060;2024-03-07T05:27:37;34.17;;;13.43;;
30378;SDS011;17168;49.164;9.060;2024-03-07T05:30:10;38.08;;;16.73;;
30378;SDS011;17168;49.164;9.060;2024-03-07T05:32:45;37.42;;;16.52;;
30378;SDS011;17168;49.164;9.060;2024-03-07T05:35:17;36.53;;;15.52;;
30378;SDS011;17168;49.164;9.060;2024-03-07T05:37:52;38.40;;;15.85;;
30378;SDS011;17168;49.164;9.060;2024-03-07T05:40:30;42.60;;;16.15;;
30378;SDS011;17168;49.164;9.060;2024-03-07T05:43:04;36.55;;;16.13;;
30378;SDS011;17168;49.164;9.060;2024-03-07T05:45:36;37.45;;;17.00;;
30378;SDS011;17168;49.164;9.060;2024-03-07T05:50:45;35.53;;;13.98;;
30378;SDS011;17168;49.164;9.060;2024-03-07T05:53:18;31.13;;;13.57;;
30378;SDS011;17168;49.164;9.060;2024-03-07T05:55:53;39.33;;;15.68;;
30378;SDS011;17168;49.164;9.060;2024-03-07T05:58:25;45.63;;;19.67;;
30378;SDS011;17168;49.164;9.060;2024-03-07T06:00:58;42.78;;;17.30;;
30378;SDS011;17168;49.164;9.060;2024-03-07T06:03:30;38.75;;;16.25;;
30378;SDS011;17168;49.164;9.060;2024-03-07T06:06:03;41.72;;;16.10;;
30378;SDS011;17168;49.164;9.060;2024-03-07T06:08:38;37.90;;;16.33;;
30378;SDS011;17168;49.164;9.060;2024-03-07T06:11:17;41.92;;;17.13;;
30378;SDS011;17168;49.164;9.060;2024-03-07T06:13:52;43.13;;;16.10;;
30378;SDS011;17168;49.164;9.060;2024-03-07T06:16:25;43.40;;;16.80;;
30378;SDS011;17168;49.164;9.060;2024-03-07T06:18:57;38.55;;;15.82;;
30378;SDS011;17168;49.164;9.060;2024-03-07T06:24:04;43.28;;;16.42;;
30378;SDS011;17168;49.164;9.060;2024-03-07T06:26:41;36.28;;;14.43;;
30378;SDS011;17168;49.164;9.060;2024-03-07T06:29:17;36.53;;;15.63;;
30378;SDS011;17168;49.164;9.060;2024-03-07T06:31:50;37.42;;;16.08;;
30378;SDS011;17168;49.164;9.060;2024-03-07T06:34:25;38.30;;;15.07;;
30378;SDS011;17168;49.164;9.060;2024-03-07T06:36:58;36.33;;;15.25;;
30378;SDS011;17168;49.164;9.060;2024-03-07T06:42:05;31.48;;;14.70;;
30378;SDS011;17168;49.164;9.060;2024-03-07T06:44:38;38.55;;;15.35;;
30378;SDS011;17168;49.164;9.060;2024-03-07T06:49:42;39.20;;;14.95;;
30378;SDS011;17168;49.164;9.060;2024-03-07T06:54:46;36.35;;;16.75;;
30378;SDS011;17168;49.164;9.060;2024-03-07T06:57:21;40.13;;;17.10;;
30378;SDS011;17168;49.164;9.060;2024-03-07T06:59:53;42.47;;;19.77;;
30378;SDS011;17168;49.164;9.060;2024-03-07T07:02:26;49.67;;;23.92;;
30378;SDS011;17168;49.164;9.060;2024-03-07T07:04:59;51.10;;;26.40;;
30378;SDS011;17168;49.164;9.060;2024-03-07T07:07:31;59.88;;;28.67;;
30378;SDS011;17168;49.164;9.060;2024-03-07T07:10:04;57.75;;;28.35;;
30378;SDS011;17168;49.164;9.060;2024-03-07T07:12:42;56.40;;;26.48;;
30378;SDS011;17168;49.164;9.060;2024-03-07T07:15:16;57.30;;;26.20;;
30378;SDS011;17168;49.164;9.060;2024-03-07T07:17:49;62.08;;;28.90;;
30378;SDS011;17168;49.164;9.060;2024-03-07T07:20:22;59.00;;;28.15;;
30378;SDS011;17168;49.164;9.060;2024-03-07T07:22:55;61.10;;;29.88;;
30378;SDS011;17168;49.164;9.060;2024-03-07T07:25:29;51.13;;;24.33;;
30378;SDS011;17168;49.164;9.060;2024-03-07T07:28:04;41.65;;;20.33;;
30378;SDS011;17168;49.164;9.060;2024-03-07T07:30:39;37.83;;;16.63;;
30378;SDS011;17168;49.164;9.060;2024-03-07T07:33:15;37.28;;;16.08;;
30378;SDS011;17168;49.164;9.060;2024-03-07T07:35:48;32.88;;;14.77;;
30378;SDS011;17168;49.164;9.060;2024-03-07T07:38:20;38.67;;;16.23;;
30378;SDS011;17168;49.164;9.060;2024-03-07T07:40:52;26.10;;;12.18;;
30378;SDS011;17168;49.164;9.060;2024-03-07T07:43:27;29.90;;;14.10;;
30378;SDS011;17168;49.164;9.060;2024-03-07T07:46:13;29.38;;;12.95;;
30378;SDS011;17168;49.164;9.060;2024-03-07T07:48:48;31.73;;;14.70;;
30378;SDS011;17168;49.164;9.060;2024-03-07T07:51:20;31.40;;;14.40;;
30378;SDS011;17168;49.164;9.060;2024-03-07T07:53:52;25.88;;;11.60;;
30378;SDS011;17168;49.164;9.060;2024-03-07T07:56:26;26.77;;;12.48;;
30378;SDS011;17168;49.164;9.060;2024-03-07T07:59:02;28.15;;;13.55;;
30378;SDS011;17168;49.164;9.060;2024-03-07T08:01:36;25.15;;;12.27;;
30378;SDS011;17168;49.164;9.060;2024-03-07T08:04:08;24.65;;;12.70;;
30378;SDS011;17168;49.164;9.060;2024-03-07T08:06:41;27.73;;;12.63;;
30378;SDS011;17168;49.164;9.060;2024-03-07T08:09:14;19.75;;;8.73;;
30378;SDS011;17168;49.164;9.060;2024-03-07T08:11:48;27.48;;;14.38;;
30378;SDS011;17168;49.164;9.060;2024-03-07T08:14:24;27.85;;;13.88;;
30378;SDS011;17168;49.164;9.060;2024-03-07T08:19:32;27.48;;;11.73;;
30378;SDS011;17168;49.164;9.060;2024-03-07T08:22:04;25.77;;;11.25;;
30378;SDS011;17168;49.164;9.060;2024-03-07T08:24:36;25.77;;;12.38;;
30378;SDS011;17168;49.164;9.060;2024-03-07T08:27:08;23.08;;;11.30;;
30378;SDS011;17168;49.164;9.060;2024-03-07T08:29:45;26.45;;;12.18;;
30378;SDS011;17168;49.164;9.060;2024-03-07T08:32:17;24.55;;;11.25;;
30378;SDS011;17168;49.164;9.060;2024-03-07T08:34:56;24.77;;;11.50;;
30378;SDS011;17168;49.164;9.060;2024-03-07T08:37:28;23.25;;;12.07;;
30378;SDS011;17168;49.164;9.060;2024-03-07T08:40:00;25.73;;;11.50;;
30378;SDS011;17168;49.164;9.060;2024-03-07T08:42:35;20.40;;;10.73;;
30378;SDS011;17168;49.164;9.060;2024-03-07T08:45:11;22.85;;;11.15;;
30378;SDS011;17168;49.164;9.060;2024-03-07T08:47:49;22.20;;;11.27;;
30378;SDS011;17168;49.164;9.060;2024-03-07T08:50:22;23.25;;;11.88;;
30378;SDS011;17168;49.164;9.060;2024-03-07T08:52:55;20.27;;;9.98;;
30378;SDS011;17168;49.164;9.060;2024-03-07T08:55:27;21.65;;;11.15;;
30378;SDS011;17168;49.164;9.060;2024-03-07T08:58:00;23.58;;;11.98;;
30378;SDS011;17168;49.164;9.060;2024-03-07T09:00:35;20.65;;;11.07;;
30378;SDS011;17168;49.164;9.060;2024-03-07T09:05:44;18.88;;;10.23;;
30378;SDS011;17168;49.164;9.060;2024-03-07T09:08:18;20.42;;;10.13;;
30378;SDS011;17168;49.164;9.060;2024-03-07T09:10:50;20.70;;;10.38;;
30378;SDS011;17168;49.164;9.060;2024-03-07T09:13:26;18.60;;;10.45;;
30378;SDS011;17168;49.164;9.060;2024-03-07T09:16:01;21.55;;;10.15;;
30378;SDS011;17168;49.164;9.060;2024-03-07T09:18:36;20.85;;;10.55;;
30378;SDS011;17168;49.164;9.060;2024-03-07T09:21:13;19.65;;;9.90;;
30378;SDS011;17168;49.164;9.060;2024-03-07T09:23:49;18.77;;;9.63;;
30378;SDS011;17168;49.164;9.060;2024-03-07T09:26:22;19.90;;;10.23;;
30378;SDS011;17168;49.164;9.060;2024-03-07T09:28:54;17.35;;;9.20;;
30378;SDS011;17168;49.164;9.060;2024-03-07T09:31:29;19.65;;;10.93;;
30378;SDS011;17168;49.164;9.060;2024-03-07T09:34:02;20.17;;;9.73;;
30378;SDS011;17168;49.164;9.060;2024-03-07T09:36:35;18.17;;;9.60;;
30378;SDS011;17168;49.164;9.060;2024-03-07T09:39:07;21.25;;;10.32;;
30378;SDS011;17168;49.164;9.060;2024-03-07T09:41:40;21.08;;;10.18;;
30378;SDS011;17168;49.164;9.060;2024-03-07T09:44:14;21.33;;;10.57;;
30378;SDS011;17168;49.164;9.060;2024-03-07T09:46:56;18.50;;;10.20;;
30378;SDS011;17168;49.164;9.060;2024-03-07T09:49:30;17.92;;;9.40;;
30378;SDS011;17168;49.164;9.060;2024-03-07T09:52:07;18.60;;;10.63;;
30378;SDS011;17168;49.164;9.060;2024-03-07T09:54:43;20.40;;;10.82;;
30378;SDS011;17168;49.164;9.060;2024-03-07T09:57:15;17.85;;;10.23;;
30378;SDS011;17168;49.164;9.060;2024-03-07T09:59:48;23.20;;;11.52;;
30378;SDS011;17168;49.164;9.060;2024-03-07T10:02:24;19.52;;;10.30;;
30378;SDS011;17168;49.164;9.060;2024-03-07T10:04:56;20.05;;;10.32;;
30378;SDS011;17168;49.164;9.060;2024-03-07T10:07:30;21.75;;;10.82;;
30378;SDS011;17168;49.164;9.060;2024-03-07T10:10:10;21.45;;;10.73;;
30378;SDS011;17168;49.164;9.060;2024-03-07T10:12:43;21.40;;;11.38;;
30378;SDS011;17168;49.164;9.060;2024-03-07T10:15:15;15.65;;;8.50;;
30378;SDS011;17168;49.164;9.060;2024-03-07T10:17:51;33.75;;;12.15;;
30378;SDS011;17168;49.164;9.060;2024-03-07T10:20:24;24.70;;;11.80;;
30378;SDS011;17168;49.164;9.060;2024-03-07T10:22:56;22.30;;;11.95;;
30378;SDS011;17168;49.164;9.060;2024-03-07T10:25:29;20.20;;;10.18;;
30378;SDS011;17168;49.164;9.060;2024-03-07T10:28:02;19.77;;;10.32;;
30378;SDS011;17168;49.164;9.060;2024-03-07T10:30:39;24.13;;;11.70;;
30378;SDS011;17168;49.164;9.060;2024-03-07T10:33:17;19.35;;;10.65;;
30378;SDS011;17168;49.164;9.060;2024-03-07T10:35:50;21.73;;;10.70;;
30378;SDS011;17168;49.164;9.060;2024-03-07T10:38:22;44.85;;;13.05;;
30378;SDS011;17168;49.164;9.060;2024-03-07T10:40:55;20.48;;;10.93;;
30378;SDS011;17168;49.164;9.060;2024-03-07T10:43:28;21.05;;;11.13;;
30378;SDS011;17168;49.164;9.060;2024-03-07T10:46:06;21.58;;;10.80;;
30378;SDS011;17168;49.164;9.060;2024-03-07T10:48:46;34.25;;;14.48;;
30378;SDS011;17168;49.164;9.060;2024-03-07T10:51:29;33.50;;;12.98;;
30378;SDS011;17168;49.164;9.060;2024-03-07T10:54:13;29.83;;;12.95;;
30378;SDS011;17168;49.164;9.060;2024-03-07T10:56:56;19.63;;;10.50;;
30378;SDS011;17168;49.164;9.060;2024-03-07T10:59:37;19.95;;;11.00;;
30378;SDS011;17168;49.164;9.060;2024-03-07T11:02:15;26.48;;;12.05;;
30378;SDS011;17168;49.164;9.060;2024-03-07T11:04:58;16.85;;;7.78;;
30378;SDS011;17168;49.164;9.060;2024-03-07T11:07:32;22.00;;;11.43;;
30378;SDS011;17168;49.164;9.060;2024-03-07T11:10:04;21.20;;;11.80;;
30378;SDS011;17168;49.164;9.060;2024-03-07T11:12:43;21.55;;;12.57;;
30378;SDS011;17168;49.164;9.060;2024-03-07T11:15:17;20.88;;;12.00;;
30378;SDS011;17168;49.164;9.060;2024-03-07T11:17:54;22.33;;;11.50;;
30378;SDS011;17168;49.164;9.060;2024-03-07T11:20:33;21.02;;;11.68;;
30378;SDS011;17168;49.164;9.060;2024-03-07T11:26:03;25.38;;;12.50;;
30378;SDS011;17168;49.164;9.060;2024-03-07T11:28:43;21.50;;;11.75;;
30378;SDS011;17168;49.164;9.060;2024-03-07T11:31:16;20.55;;;12.73;;
30378;SDS011;17168;49.164;9.060;2024-03-07T11:34:13;21.55;;;12.50;;
30378;SDS011;17168;49.164;9.060;2024-03-07T11:36:49;19.30;;;10.38;;
30378;SDS011;17168;49.164;9.060;2024-03-07T11:42:24;18.40;;;10.57;;
30378;SDS011;17168;49.164;9.060;2024-03-07T11:45:00;20.30;;;11.95;;
30378;SDS011;17168;49.164;9.060;2024-03-07T11:47:36;18.55;;;11.15;;
30378;SDS011;17168;49.164;9.060;2024-03-07T11:50:10;19.38;;;12.45;;
30378;SDS011;17168;49.164;9.060;2024-03-07T11:52:46;21.33;;;12.30;;
30378;SDS011;17168;49.164;9.060;2024-03-07T11:55:19;19.52;;;12.48;;
30378;SDS011;17168;49.164;9.060;2024-03-07T11:57:53;19.73;;;12.48;;
30378;SDS011;17168;49.164;9.060;2024-03-07T12:00:25;19.23;;;12.15;;
30378;SDS011;17168;49.164;9.060;2024-03-07T12:03:01;21.88;;;13.27;;
30378;SDS011;17168;49.164;9.060;2024-03-07T12:05:35;22.15;;;13.77;;
30378;SDS011;17168;49.164;9.060;2024-03-07T12:08:12;18.77;;;12.05;;
30378;SDS011;17168;49.164;9.060;2024-03-07T12:10:44;18.73;;;11.60;;
30378;SDS011;17168;49.164;9.060;2024-03-07T12:13:20;19.95;;;11.95;;
30378;SDS011;17168;49.164;9.060;2024-03-07T12:15:52;18.77;;;12.05;;
30378;SDS011;17168;49.164;9.060;2024-03-07T12:18:27;19.67;;;11.82;;
30378;SDS011;17168;49.164;9.060;2024-03-07T12:21:01;20.40;;;13.13;;
30378;SDS011;17168;49.164;9.060;2024-03-07T12:23:41;17.02;;;11.63;;
30378;SDS011;17168;49.164;9.060;2024-03-07T12:26:13;21.73;;;12.43;;
30378;SDS011;17168;49.164;9.060;2024-03-07T12:28:54;20.05;;;12.30;;
30378;SDS011;17168;49.164;9.060;2024-03-07T12:31:26;20.92;;;12.63;;
30378;SDS011;17168;49.164;9.060;2024-03-07T12:33:58;21.38;;;13.25;;
30378;SDS011;17168;49.164;9.060;2024-03-07T12:36:31;18.73;;;11.70;;
30378;SDS011;17168;49.164;9.060;2024-03-07T12:39:25;20.85;;;13.05;;
30378;SDS011;17168;49.164;9.060;2024-03-07T12:41:57;20.00;;;12.23;;
30378;SDS011;17168;49.164;9.060;2024-03-07T12:47:23;21.55;;;12.60;;
30378;SDS011;17168;49.164;9.060;2024-03-07T12:49:57;19.85;;;11.77;;
30378;SDS011;17168;49.164;9.060;2024-03-07T12:52:31;19.38;;;11.98;;
30378;SDS011;17168;49.164;9.060;2024-03-07T12:55:06;22.73;;;12.60;;
30378;SDS011;17168;49.164;9.060;2024-03-07T12:57:39;20.13;;;11.68;;
30378;SDS011;17168;49.164;9.060;2024-03-07T13:00:13;21.15;;;12.10;;
30378;SDS011;17168;49.164;9.060;2024-03-07T13:02:51;22.23;;;12.23;;
30378;SDS011;17168;49.164;9.060;2024-03-07T13:05:24;20.70;;;11.93;;
30378;SDS011;17168;49.164;9.060;2024-03-07T13:07:57;21.67;;;11.48;;
30378;SDS011;17168;49.164;9.060;2024-03-07T13:10:35;17.15;;;10.13;;
30378;SDS011;17168;49.164;9.060;2024-03-07T13:13:09;19.45;;;11.05;;
30378;SDS011;17168;49.164;9.060;2024-03-07T13:15:42;17.70;;;10.25;;
30378;SDS011;17168;49.164;9.060;2024-03-07T13:18:18;17.42;;;10.10;;
30378;SDS011;17168;49.164;9.060;2024-03-07T13:20:51;18.17;;;9.85;;
30378;SDS011;17168;49.164;9.060;2024-03-07T13:23:24;16.48;;;9.55;;
30378;SDS011;17168;49.164;9.060;2024-03-07T13:26:03;20.92;;;11.35;;
30378;SDS011;17168;49.164;9.060;2024-03-07T13:28:40;15.63;;;9.60;;
30378;SDS011;17168;49.164;9.060;2024-03-07T13:31:13;15.60;;;10.20;;
30378;SDS011;17168;49.164;9.060;2024-03-07T13:33:49;18.98;;;11.00;;
30378;SDS011;17168;49.164;9.060;2024-03-07T13:36:23;16.30;;;10.48;;
30378;SDS011;17168;49.164;9.060;2024-03-07T13:38:56;17.70;;;11.13;;
30378;SDS011;17168;49.164;9.060;2024-03-07T13:41:32;17.38;;;10.30;;
30378;SDS011;17168;49.164;9.060;2024-03-07T13:44:04;16.42;;;10.02;;
30378;SDS011;17168;49.164;9.060;2024-03-07T13:46:36;17.63;;;11.18;;
30378;SDS011;17168;49.164;9.060;2024-03-07T13:49:08;21.30;;;12.23;;
30378;SDS011;17168;49.164;9.060;2024-03-07T13:51:48;18.75;;;10.90;;
30378;SDS011;17168;49.164;9.060;2024-03-07T13:54:25;18.42;;;10.88;;
30378;SDS011;17168;49.164;9.060;2024-03-07T13:57:17;15.73;;;9.68;;
30378;SDS011;17168;49.164;9.060;2024-03-07T14:00:13;17.58;;;10.18;;
30378;SDS011;17168;49.164;9.060;2024-03-07T14:06:09;17.33;;;10.18;;
30378;SDS011;17168;49.164;9.060;2024-03-07T14:08:48;17.27;;;10.57;;
30378;SDS011;17168;49.164;9.060;2024-03-07T14:21:10;18.63;;;9.45;;
30378;SDS011;17168;49.164;9.060;2024-03-07T14:24:15;17.42;;;10.20;;
30378;SDS011;17168;49.164;9.060;2024-03-07T14:27:14;16.58;;;9.32;;
30378;SDS011;17168;49.164;9.060;2024-03-07T14:30:00;15.82;;;9.18;;
30378;SDS011;17168;49.164;9.060;2024-03-07T14:32:56;16.50;;;9.30;;
30378;SDS011;17168;49.164;9.060;2024-03-07T14:35:39;15.82;;;10.13;;
30378;SDS011;17168;49.164;9.060;2024-03-07T14:38:40;15.90;;;8.95;;
30378;SDS011;17168;49.164;9.060;2024-03-07T14:41:20;18.67;;;9.95;;
30378;SDS011;17168;49.164;9.060;2024-03-07T14:44:11;17.50;;;9.93;;
30378;SDS011;17168;49.164;9.060;2024-03-07T14:46:47;16.08;;;9.32;;
30378;SDS011;17168;49.164;9.060;2024-03-07T14:49:37;14.98;;;8.90;;
30378;SDS011;17168;49.164;9.060;2024-03-07T14:52:13;16.08;;;9.27;;
30378;SDS011;17168;49.164;9.060;2024-03-07T14:54:46;16.08;;;9.35;;
30378;SDS011;17168;49.164;9.060;2024-03-07T14:57:19;18.40;;;9.95;;
30378;SDS011;17168;49.164;9.060;2024-03-07T14:59:53;16.05;;;9.55;;
30378;SDS011;17168;49.164;9.060;2024-03-07T15:02:29;17.30;;;10.43;;
30378;SDS011;17168;49.164;9.060;2024-03-07T15:05:01;18.52;;;10.48;;
30378;SDS011;17168;49.164;9.060;2024-03-07T15:07:39;16.70;;;10.05;;
30378;SDS011;17168;49.164;9.060;2024-03-07T15:10:14;19.23;;;10.45;;
30378;SDS011;17168;49.164;9.060;2024-03-07T15:12:50;17.50;;;9.38;;
30378;SDS011;17168;49.164;9.060;2024-03-07T15:15:22;18.38;;;10.07;;
30378;SDS011;17168;49.164;9.060;2024-03-07T15:18:02;22.13;;;11.43;;
30378;SDS011;17168;49.164;9.060;2024-03-07T15:20:35;18.08;;;10.18;;
30378;SDS011;17168;49.164;9.060;2024-03-07T15:23:10;18.92;;;11.55;;
30378;SDS011;17168;49.164;9.060;2024-03-07T15:28:17;18.63;;;9.43;;
30378;SDS011;17168;49.164;9.060;2024-03-07T15:30:52;20.63;;;11.98;;
30378;SDS011;17168;49.164;9.060;2024-03-07T15:33:24;16.67;;;9.57;;
30378;SDS011;17168;49.164;9.060;2024-03-07T15:35:56;19.67;;;10.88;;
30378;SDS011;17168;49.164;9.060;2024-03-07T15:38:31;20.42;;;10.95;;
30378;SDS011;17168;49.164;9.060;2024-03-07T15:41:04;19.42;;;11.57;;
30378;SDS011;17168;49.164;9.060;2024-03-07T15:43:42;15.40;;;10.18;;
30378;SDS011;17168;49.164;9.060;2024-03-07T15:46:14;17.08;;;8.98;;
30378;SDS011;17168;49.164;9.060;2024-03-07T15:48:50;17.92;;;9.70;;
30378;SDS011;17168;49.164;9.060;2024-03-07T15:51:22;16.45;;;10.20;;
30378;SDS011;17168;49.164;9.060;2024-03-07T15:53:57;18.98;;;9.75;;